createdAt,value
2019-02-14T00:01:14.843Z,42.73
2019-02-14T00:03:44.168Z,32.20
2019-02-14T00:06:13.587Z,28.33
2019-02-14T00:08:42.861Z,31.97
2019-02-14T00:11:12.164Z,30.07
2019-02-14T00:13:41.608Z,34.30
2019-02-14T00:16:10.889Z,38.07
2019-02-14T00:18:40.241Z,28.50
2019-02-14T00:21:09.775Z,26.83
2019-02-14T00:23:39.075Z,36.57
2019-02-14T00:26:08.400Z,28.77
2019-02-14T00:28:37.847Z,34.27
2019-02-14T00:31:07.131Z,26.90
2019-02-14T00:33:36.425Z,33.80
2019-02-14T00:36:05.845Z,25.23
2019-02-14T00:38:35.187Z,28.73
2019-02-14T00:41:04.583Z,20.43
2019-02-14T00:43:33.944Z,26.20
2019-02-14T00:46:03.232Z,24.73
2019-02-14T00:48:32.664Z,23.80
2019-02-14T00:51:02.266Z,21.87
2019-02-14T00:53:31.569Z,22.77
2019-02-14T00:56:00.953Z,22.03
2019-02-14T00:58:30.529Z,21.50
2019-02-14T01:00:59.788Z,26.37
2019-02-14T01:03:29.012Z,24.03
2019-02-14T01:05:58.495Z,20.23
2019-02-14T01:08:27.873Z,23.37
2019-02-14T01:10:57.255Z,24.57
2019-02-14T01:13:26.731Z,22.10
2019-02-14T01:15:56.049Z,22.30
2019-02-14T01:18:25.296Z,20.33
2019-02-14T01:20:54.667Z,25.73
2019-02-14T01:23:23.946Z,23.37
2019-02-14T01:25:53.181Z,25.10
2019-02-14T01:28:22.525Z,24.33
2019-02-14T01:30:51.868Z,24.50
2019-02-14T01:33:21.175Z,24.70
2019-02-14T01:35:50.568Z,26.37
2019-02-14T01:38:19.853Z,25.87
2019-02-14T01:40:49.096Z,25.20
2019-02-14T01:43:18.359Z,28.80
2019-02-14T01:45:47.660Z,27.33
2019-02-14T01:48:17.045Z,22.13
2019-02-14T01:50:46.388Z,26.23
2019-02-14T01:53:15.642Z,31.80
2019-02-14T01:55:44.964Z,34.57
2019-02-14T01:58:14.578Z,31.00
2019-02-14T02:00:43.937Z,28.40
2019-02-14T02:03:13.346Z,33.50
2019-02-14T02:05:50.425Z,32.77
2019-02-14T02:08:13.841Z,30.73
2019-02-14T02:10:43.173Z,32.57
2019-02-14T02:13:12.525Z,32.67
2019-02-14T02:15:41.793Z,33.90
2019-02-14T02:18:11.099Z,31.23
2019-02-14T02:20:40.469Z,36.73
2019-02-14T02:23:09.831Z,33.40
2019-02-14T02:25:39.138Z,28.90
2019-02-14T02:28:08.459Z,32.07
2019-02-14T02:30:37.754Z,32.53
2019-02-14T02:33:07.035Z,30.97
2019-02-14T02:35:36.536Z,30.00
2019-02-14T02:38:05.873Z,29.57
2019-02-14T02:40:35.621Z,27.80
2019-02-14T02:43:05.266Z,27.17
2019-02-14T02:45:34.847Z,27.03
2019-02-14T02:48:04.123Z,23.13
2019-02-14T02:50:33.662Z,22.77
2019-02-14T02:53:02.944Z,24.10
2019-02-14T02:55:32.208Z,22.30
2019-02-14T02:58:01.588Z,21.53
2019-02-14T03:00:30.961Z,20.47
2019-02-14T03:03:00.297Z,22.90
2019-02-14T03:05:29.728Z,21.43
2019-02-14T03:07:59.003Z,20.50
2019-02-14T03:10:28.286Z,24.67
2019-02-14T03:12:57.707Z,25.83
2019-02-14T03:15:27.043Z,22.97
2019-02-14T03:17:56.355Z,19.53
2019-02-14T03:20:25.617Z,24.23
2019-02-14T03:22:54.849Z,22.07
2019-02-14T03:25:24.215Z,22.10
2019-02-14T03:27:53.835Z,28.60
2019-02-14T03:30:23.173Z,25.00
2019-02-14T03:32:52.523Z,24.10
2019-02-14T03:35:22.005Z,21.73
2019-02-14T03:37:51.324Z,23.07
2019-02-14T03:40:20.634Z,22.00
2019-02-14T03:42:50.261Z,22.00
2019-02-14T03:45:19.536Z,24.60
2019-02-14T03:47:48.840Z,21.87
2019-02-14T03:50:18.455Z,20.77
2019-02-14T03:52:47.829Z,22.23
2019-02-14T03:55:17.221Z,20.87
2019-02-14T03:57:46.550Z,18.30
2019-02-14T04:00:16.311Z,19.00
2019-02-14T04:02:45.585Z,16.63
2019-02-14T04:05:15.059Z,23.43
2019-02-14T04:07:44.408Z,19.27
2019-02-14T04:10:13.815Z,22.03
2019-02-14T04:12:43.625Z,20.60
2019-02-14T04:15:15.140Z,22.37
2019-02-14T04:17:44.479Z,19.63
2019-02-14T04:20:13.816Z,30.83
2019-02-14T04:22:43.103Z,26.47
2019-02-14T04:25:12.380Z,28.40
2019-02-14T04:27:41.694Z,34.93
2019-02-14T04:30:11.590Z,31.07
2019-02-14T04:32:40.955Z,32.13
2019-02-14T04:35:10.235Z,29.87
2019-02-14T04:37:39.553Z,32.17
2019-02-14T04:40:10.597Z,30.27
2019-02-14T04:42:40.018Z,26.47
2019-02-14T04:45:09.504Z,32.57
2019-02-14T04:47:38.794Z,32.57
2019-02-14T04:50:08.454Z,29.87
2019-02-14T04:52:37.769Z,32.47
2019-02-14T04:55:07.575Z,31.30
2019-02-14T04:57:36.919Z,28.77
2019-02-14T05:00:07.107Z,27.53
2019-02-14T05:02:36.690Z,24.87
2019-02-14T05:05:06.309Z,28.27
2019-02-14T05:07:35.773Z,25.77
2019-02-14T05:10:05.868Z,29.07
2019-02-14T05:12:35.133Z,29.27
2019-02-14T05:15:04.630Z,31.23
2019-02-14T05:17:34.190Z,33.00
2019-02-14T05:20:03.530Z,30.00
2019-02-14T05:22:32.871Z,30.63
2019-02-14T05:25:02.351Z,30.40
2019-02-14T05:27:33.019Z,33.43
2019-02-14T05:30:02.346Z,35.13
2019-02-14T05:32:31.902Z,41.17
2019-02-14T05:35:01.233Z,36.17
2019-02-14T05:37:30.548Z,49.93
2019-02-14T05:39:59.992Z,45.83
2019-02-14T05:42:29.306Z,40.53
2019-02-14T05:44:58.705Z,49.67
2019-02-14T05:47:28.130Z,43.67
2019-02-14T05:49:57.390Z,49.80
2019-02-14T05:52:26.775Z,46.37
2019-02-14T05:54:56.222Z,52.23
2019-02-14T05:57:27.364Z,47.23
2019-02-14T05:59:56.708Z,46.17
2019-02-14T06:02:26.236Z,48.10
2019-02-14T06:04:55.549Z,61.47
2019-02-14T06:07:24.895Z,56.07
2019-02-14T06:09:54.340Z,49.53
2019-02-14T06:12:23.648Z,52.43
2019-02-14T06:14:52.979Z,50.40
2019-02-14T06:17:22.372Z,54.60
2019-02-14T06:19:51.631Z,51.27
2019-02-14T06:22:20.894Z,50.87
2019-02-14T06:24:50.355Z,47.63
2019-02-14T06:27:19.690Z,50.67
2019-02-14T06:29:49.097Z,42.50
2019-02-14T06:32:18.651Z,45.67
2019-02-14T06:34:48.005Z,44.53
2019-02-14T06:37:17.296Z,41.83
2019-02-14T06:39:46.644Z,46.13
2019-02-14T06:42:15.942Z,39.60
2019-02-14T06:44:45.243Z,42.53
2019-02-14T06:47:14.767Z,38.50
2019-02-14T06:49:44.145Z,41.10
2019-02-14T06:52:13.489Z,40.20
2019-02-14T06:54:43.058Z,38.07
2019-02-14T06:57:12.368Z,36.70
2019-02-14T06:59:41.660Z,34.07
2019-02-14T07:02:11.192Z,30.20
2019-02-14T07:04:40.503Z,31.97
2019-02-14T07:07:17.882Z,31.63
2019-02-14T07:09:40.956Z,25.20
2019-02-14T07:12:10.313Z,28.13
2019-02-14T07:14:39.573Z,19.03
2019-02-14T07:17:08.961Z,23.03
2019-02-14T07:19:38.336Z,20.23
2019-02-14T07:22:07.730Z,20.20
2019-02-14T07:24:37.182Z,22.27
2019-02-14T07:27:06.398Z,18.90
2019-02-14T07:29:35.684Z,18.20
2019-02-14T07:32:05.092Z,18.80
2019-02-14T07:34:34.411Z,15.47
2019-02-14T07:37:03.769Z,14.10
2019-02-14T07:39:33.356Z,15.70
2019-02-14T07:42:02.707Z,11.20
2019-02-14T07:44:32.170Z,13.63
2019-02-14T07:47:01.514Z,13.87
2019-02-14T07:49:30.821Z,13.37
2019-02-14T07:52:00.127Z,15.13
2019-02-14T07:54:29.411Z,15.80
2019-02-14T07:56:58.801Z,17.97
2019-02-14T07:59:28.166Z,17.70
2019-02-14T08:01:57.735Z,17.17
2019-02-14T08:04:27.020Z,19.77
2019-02-14T08:06:56.294Z,20.67
2019-02-14T08:09:25.757Z,20.33
2019-02-14T08:11:55.081Z,20.70
2019-02-14T08:14:24.454Z,26.13
2019-02-14T08:16:53.991Z,24.23
2019-02-14T08:19:23.311Z,30.00
2019-02-14T08:21:52.671Z,32.13
2019-02-14T08:24:22.025Z,31.93
2019-02-14T08:26:51.301Z,31.90
2019-02-14T08:29:20.596Z,27.97
2019-02-14T08:31:50.098Z,33.10
2019-02-14T08:34:19.427Z,27.37
2019-02-14T08:36:48.704Z,32.30
2019-02-14T08:39:18.222Z,30.27
2019-02-14T08:41:47.533Z,24.80
2019-02-14T08:44:16.803Z,29.50
2019-02-14T08:46:46.244Z,29.50
2019-02-14T08:49:15.589Z,29.37
2019-02-14T08:51:44.951Z,30.03
2019-02-14T08:54:14.402Z,30.10
2019-02-14T08:56:43.667Z,33.23
2019-02-14T08:59:12.966Z,37.67
2019-02-14T09:01:42.477Z,34.43
2019-02-14T09:04:11.781Z,31.43
2019-02-14T09:06:41.099Z,37.73
2019-02-14T09:09:10.641Z,30.10
2019-02-14T09:11:40.169Z,31.97
2019-02-14T09:14:09.487Z,34.10
2019-02-14T09:16:38.952Z,31.30
2019-02-14T09:19:08.309Z,32.70
2019-02-14T09:21:37.585Z,30.50
2019-02-14T09:24:06.937Z,34.43
2019-02-14T09:26:36.289Z,34.10
2019-02-14T09:29:05.619Z,35.37
2019-02-14T09:31:35.001Z,30.17
2019-02-14T09:34:05.362Z,33.77
2019-02-14T09:36:34.679Z,32.73
2019-02-14T09:39:04.734Z,34.17
2019-02-14T09:41:34.054Z,29.30
2019-02-14T09:44:03.383Z,31.43
2019-02-14T09:46:33.022Z,32.40
2019-02-14T09:49:02.357Z,35.43
2019-02-14T09:51:31.682Z,34.63
2019-02-14T09:54:01.185Z,36.43
2019-02-14T09:56:30.511Z,37.50
2019-02-14T09:58:59.814Z,34.97
2019-02-14T10:01:29.198Z,37.37
2019-02-14T10:03:58.582Z,32.37
2019-02-14T10:06:36.190Z,33.37
2019-02-14T10:09:00.614Z,31.73
2019-02-14T10:11:30.189Z,39.73
2019-02-14T10:13:59.545Z,41.87
2019-02-14T10:16:28.879Z,41.40
2019-02-14T10:18:58.192Z,43.17
2019-02-14T10:21:27.582Z,34.23
2019-02-14T10:23:57.028Z,35.97
2019-02-14T10:26:26.308Z,37.40
2019-02-14T10:28:55.649Z,36.47
2019-02-14T10:31:25.002Z,38.93
2019-02-14T10:33:54.346Z,37.33
2019-02-14T10:36:23.695Z,38.13
2019-02-14T10:38:52.972Z,38.80
2019-02-14T10:41:22.264Z,41.50
2019-02-14T10:43:51.613Z,38.07
2019-02-14T10:46:21.032Z,50.90
2019-02-14T10:48:50.338Z,46.73
2019-02-14T10:51:19.639Z,37.37
2019-02-14T10:53:48.997Z,40.97
2019-02-14T10:56:18.344Z,34.70
2019-02-14T10:58:47.685Z,39.73
2019-02-14T11:01:17.159Z,44.77
2019-02-14T11:03:46.498Z,40.90
2019-02-14T11:06:15.817Z,44.70
2019-02-14T11:08:45.362Z,40.43
2019-02-14T11:11:14.746Z,50.77
2019-02-14T11:13:44.022Z,48.80
2019-02-14T11:16:13.409Z,48.63
2019-02-14T11:18:44.583Z,42.67
2019-02-14T11:21:13.832Z,43.47
2019-02-14T11:23:43.309Z,41.97
2019-02-14T11:26:12.593Z,43.63
2019-02-14T11:28:42.012Z,42.83
2019-02-14T11:31:11.275Z,42.23
2019-02-14T11:33:40.751Z,44.07
2019-02-14T11:36:10.117Z,36.33
2019-02-14T11:38:40.857Z,44.40
2019-02-14T11:41:10.253Z,35.10
2019-02-14T11:43:39.577Z,39.80
2019-02-14T11:46:08.887Z,34.87
2019-02-14T11:48:38.459Z,37.77
2019-02-14T11:51:07.793Z,38.20
2019-02-14T11:53:37.086Z,44.67
2019-02-14T11:56:06.617Z,40.00
2019-02-14T11:58:35.917Z,35.90
2019-02-14T12:01:05.465Z,32.20
2019-02-14T12:03:34.941Z,34.30
2019-02-14T12:06:04.210Z,37.50
2019-02-14T12:08:33.564Z,33.27
2019-02-14T12:11:03.053Z,32.30
2019-02-14T12:13:32.418Z,35.20
2019-02-14T12:16:01.746Z,37.70
2019-02-14T12:18:31.239Z,34.90
2019-02-14T12:21:00.539Z,36.43
2019-02-14T12:23:29.894Z,33.67
2019-02-14T12:25:59.405Z,32.83
2019-02-14T12:28:28.699Z,24.37
2019-02-14T12:30:58.012Z,31.10
2019-02-14T12:33:27.470Z,31.67
2019-02-14T12:35:56.809Z,27.60
2019-02-14T12:38:26.093Z,35.40
2019-02-14T12:40:55.395Z,33.63
2019-02-14T12:43:24.730Z,29.37
2019-02-14T12:45:54.021Z,36.03
2019-02-14T12:48:23.363Z,34.90
2019-02-14T12:50:52.654Z,29.13
2019-02-14T12:53:21.912Z,32.53
2019-02-14T12:55:51.410Z,36.33
2019-02-14T12:58:20.724Z,37.13
2019-02-14T13:00:50.009Z,32.00
2019-02-14T13:03:19.514Z,30.90
2019-02-14T13:05:48.840Z,30.67
2019-02-14T13:08:18.137Z,36.13
2019-02-14T13:10:47.512Z,38.23
2019-02-14T13:13:16.813Z,34.87
2019-02-14T13:15:46.088Z,29.57
2019-02-14T13:18:15.568Z,29.43
2019-02-14T13:20:44.898Z,31.67
2019-02-14T13:23:14.205Z,30.03
2019-02-14T13:25:43.525Z,35.87
2019-02-14T13:28:12.864Z,29.47
2019-02-14T13:30:42.203Z,28.87
2019-02-14T13:33:11.560Z,32.63
2019-02-14T13:35:41.971Z,28.47
2019-02-14T13:38:11.314Z,28.67
2019-02-14T13:40:40.612Z,37.87
2019-02-14T13:43:10.522Z,34.10
2019-02-14T13:45:39.917Z,31.33
2019-02-14T13:48:09.946Z,29.93
2019-02-14T13:50:39.254Z,33.03
2019-02-14T13:53:08.625Z,31.63
2019-02-14T13:55:38.019Z,32.57
2019-02-14T13:58:07.293Z,26.60
2019-02-14T14:00:36.609Z,28.00
2019-02-14T14:03:05.935Z,22.47
2019-02-14T14:05:35.397Z,29.63
2019-02-14T14:08:04.726Z,26.53
2019-02-14T14:10:34.194Z,30.87
2019-02-14T14:13:03.511Z,30.33
2019-02-14T14:15:32.795Z,31.67
2019-02-14T14:18:02.244Z,24.07
2019-02-14T14:20:31.602Z,34.20
2019-02-14T14:23:00.921Z,26.50
2019-02-14T14:25:30.336Z,30.23
2019-02-14T14:27:59.614Z,30.93
2019-02-14T14:30:28.933Z,30.83
2019-02-14T14:32:58.485Z,37.83
2019-02-14T14:35:27.796Z,38.10
2019-02-14T14:37:57.079Z,36.77
2019-02-14T14:40:26.727Z,40.93
2019-02-14T14:43:14.984Z,37.13
2019-02-14T14:46:01.193Z,43.07
2019-02-14T14:48:35.748Z,52.03
2019-02-14T14:51:05.310Z,48.43
2019-02-14T14:53:34.596Z,48.57
2019-02-14T14:56:03.889Z,45.73
2019-02-14T14:58:33.469Z,46.90
2019-02-14T15:01:02.803Z,51.67
2019-02-14T15:03:32.066Z,47.30
2019-02-14T15:06:01.501Z,54.33
2019-02-14T15:08:30.820Z,54.03
2019-02-14T15:11:00.110Z,54.07
2019-02-14T15:13:29.758Z,56.70
2019-02-14T15:15:59.027Z,56.43
2019-02-14T15:18:28.365Z,57.23
2019-02-14T15:20:57.678Z,52.93
2019-02-14T15:23:26.935Z,47.40
2019-02-14T15:25:56.295Z,44.00
2019-02-14T15:28:25.602Z,46.33
2019-02-14T15:30:55.004Z,48.83
2019-02-14T15:33:24.396Z,48.33
2019-02-14T15:35:53.872Z,53.00
2019-02-14T15:38:23.188Z,50.67
2019-02-14T15:40:52.539Z,54.10
2019-02-14T15:43:22.071Z,47.63
2019-02-14T15:45:51.425Z,53.23
2019-02-14T15:48:20.769Z,51.07
2019-02-14T15:50:51.509Z,56.63
2019-02-14T15:53:21.606Z,60.03
2019-02-14T15:55:51.099Z,56.60
2019-02-14T15:58:20.437Z,58.50
2019-02-14T16:00:51.677Z,57.93
2019-02-14T16:03:20.884Z,62.73
2019-02-14T16:05:50.245Z,59.60
2019-02-14T16:08:21.774Z,59.33
2019-02-14T16:10:54.056Z,67.03
2019-02-14T16:13:21.601Z,76.40
2019-02-14T16:15:51.094Z,67.70
2019-02-14T16:18:21.225Z,79.83
2019-02-14T16:20:51.594Z,73.90
2019-02-14T16:23:20.976Z,75.20
2019-02-14T16:25:51.989Z,71.23
2019-02-14T16:28:21.308Z,77.50
2019-02-14T16:30:52.433Z,80.53
2019-02-14T16:33:23.555Z,69.70
2019-02-14T16:35:53.189Z,63.90
2019-02-14T16:38:22.570Z,75.53
2019-02-14T16:40:51.889Z,76.20
2019-02-14T16:43:21.224Z,67.93
2019-02-14T16:45:50.538Z,55.27
2019-02-14T16:48:19.860Z,65.77
2019-02-14T16:50:49.180Z,56.30
2019-02-14T16:53:18.459Z,58.23
2019-02-14T16:55:47.783Z,54.33
2019-02-14T16:58:17.159Z,54.20
2019-02-14T17:00:46.498Z,51.10
2019-02-14T17:03:15.770Z,53.40
2019-02-14T17:05:45.229Z,57.33
2019-02-14T17:08:14.566Z,55.33
2019-02-14T17:10:43.892Z,51.83
2019-02-14T17:13:13.183Z,57.93
2019-02-14T17:15:42.497Z,55.53
2019-02-14T17:18:11.803Z,49.10
2019-02-14T17:20:41.353Z,54.00
2019-02-14T17:23:10.658Z,51.73
2019-02-14T17:25:39.915Z,48.17
2019-02-14T17:28:09.265Z,56.47
2019-02-14T17:30:38.575Z,45.07
2019-02-14T17:33:07.855Z,48.57
2019-02-14T17:35:37.264Z,53.20
2019-02-14T17:38:06.627Z,45.00
2019-02-14T17:40:35.891Z,51.03
2019-02-14T17:43:05.239Z,45.63
2019-02-14T17:45:34.529Z,48.00
2019-02-14T17:48:03.835Z,45.47
2019-02-14T17:50:33.149Z,41.73
2019-02-14T17:53:02.486Z,48.97
2019-02-14T17:55:31.833Z,42.87
2019-02-14T17:58:01.143Z,41.77
2019-02-14T18:00:31.237Z,41.43
2019-02-14T18:03:00.512Z,44.37
2019-02-14T18:05:29.843Z,47.27
2019-02-14T18:07:59.211Z,43.20
2019-02-14T18:10:28.545Z,48.00
2019-02-14T18:12:59.329Z,46.17
2019-02-14T18:15:28.645Z,46.47
2019-02-14T18:17:57.951Z,50.60
2019-02-14T18:20:27.278Z,43.03
2019-02-14T18:22:56.611Z,44.43
2019-02-14T18:25:25.899Z,49.43
2019-02-14T18:27:55.433Z,46.93
2019-02-14T18:30:24.738Z,40.17
2019-02-14T18:32:54.010Z,43.97
2019-02-14T18:35:23.489Z,44.23
2019-02-14T18:37:52.779Z,43.87
2019-02-14T18:40:22.098Z,37.60
2019-02-14T18:42:52.217Z,46.03
2019-02-14T18:45:21.496Z,43.73
2019-02-14T18:47:50.809Z,41.63
2019-02-14T18:50:20.179Z,41.97
2019-02-14T18:52:49.518Z,46.63
2019-02-14T18:55:18.830Z,42.87
2019-02-14T18:57:48.176Z,50.07
2019-02-14T19:00:17.545Z,42.60
2019-02-14T19:02:46.850Z,42.10
2019-02-14T19:05:16.209Z,45.60
2019-02-14T19:07:45.506Z,45.90
2019-02-14T19:10:14.967Z,48.67
2019-02-14T19:12:44.489Z,52.67
2019-02-14T19:15:14.073Z,55.27
2019-02-14T19:17:43.538Z,56.50
2019-02-14T19:20:13.199Z,55.03
2019-02-14T19:22:42.504Z,43.90
2019-02-14T19:25:11.956Z,54.73
2019-02-14T19:27:41.485Z,51.87
2019-02-14T19:30:11.062Z,60.67
2019-02-14T19:32:40.405Z,55.80
2019-02-14T19:35:10.143Z,54.27
2019-02-14T19:37:39.435Z,58.03
2019-02-14T19:40:08.886Z,59.80
2019-02-14T19:42:38.270Z,61.30
2019-02-14T19:45:08.321Z,57.47
2019-02-14T19:47:37.634Z,53.90
2019-02-14T19:50:08.155Z,54.50
2019-02-14T19:52:37.925Z,63.20
2019-02-14T19:55:07.589Z,52.73
2019-02-14T19:57:36.876Z,57.60
2019-02-14T20:00:07.303Z,51.03
2019-02-14T20:02:36.608Z,55.90
2019-02-14T20:05:06.758Z,56.17
2019-02-14T20:07:36.065Z,60.67
2019-02-14T20:10:05.927Z,56.47
2019-02-14T20:12:35.366Z,57.27
2019-02-14T20:15:05.095Z,56.70
2019-02-14T20:17:34.368Z,56.63
2019-02-14T20:20:03.698Z,53.10
2019-02-14T20:22:33.054Z,60.23
2019-02-14T20:25:02.341Z,62.57
2019-02-14T20:27:31.804Z,55.33
2019-02-14T20:30:01.108Z,53.10
2019-02-14T20:32:30.631Z,58.27
2019-02-14T20:35:01.708Z,70.73
2019-02-14T20:37:31.022Z,60.20
2019-02-14T20:40:00.331Z,60.23
2019-02-14T20:42:29.724Z,59.13
2019-02-14T20:44:59.031Z,58.83
2019-02-14T20:47:30.481Z,64.70
2019-02-14T20:49:59.772Z,64.83
2019-02-14T20:52:29.045Z,64.27
2019-02-14T20:54:58.422Z,61.97
2019-02-14T20:57:27.848Z,60.87
2019-02-14T20:59:57.205Z,58.73
2019-02-14T21:02:26.461Z,65.13
2019-02-14T21:04:55.759Z,63.17
2019-02-14T21:07:25.094Z,58.03
2019-02-14T21:09:54.530Z,62.30
2019-02-14T21:12:23.884Z,58.57
2019-02-14T21:14:54.521Z,64.60
2019-02-14T21:17:23.920Z,67.87
2019-02-14T21:19:53.239Z,62.83
2019-02-14T21:22:22.590Z,62.53
2019-02-14T21:24:52.071Z,60.93
2019-02-14T21:27:21.422Z,63.97
2019-02-14T21:29:50.762Z,60.53
2019-02-14T21:32:20.079Z,64.13
2019-02-14T21:34:49.406Z,63.20
2019-02-14T21:37:18.740Z,62.87
2019-02-14T21:39:48.128Z,59.43
2019-02-14T21:42:21.684Z,69.20
2019-02-14T21:44:48.472Z,63.20
2019-02-14T21:47:17.889Z,58.57
2019-02-14T21:49:47.265Z,62.10
2019-02-14T21:52:18.017Z,61.57
2019-02-14T21:54:47.542Z,57.80
2019-02-14T21:57:16.876Z,55.10
2019-02-14T21:59:46.218Z,63.60
2019-02-14T22:02:15.490Z,57.53
2019-02-14T22:04:44.819Z,52.60
2019-02-14T22:07:14.105Z,53.80
2019-02-14T22:09:43.503Z,57.13
2019-02-14T22:12:12.834Z,56.77
2019-02-14T22:14:42.125Z,54.53
2019-02-14T22:17:11.468Z,56.60
2019-02-14T22:19:40.749Z,57.80
2019-02-14T22:22:10.150Z,48.37
2019-02-14T22:24:39.752Z,53.07
2019-02-14T22:27:09.065Z,55.47
2019-02-14T22:29:38.359Z,53.23
2019-02-14T22:32:07.839Z,56.27
2019-02-14T22:34:37.186Z,56.37
2019-02-14T22:37:06.509Z,48.27
2019-02-14T22:39:35.856Z,55.67
2019-02-14T22:42:05.172Z,51.40
2019-02-14T22:44:34.472Z,48.00
2019-02-14T22:47:03.965Z,53.80
2019-02-14T22:49:33.324Z,61.57
2019-02-14T22:52:02.653Z,45.07
2019-02-14T22:54:32.055Z,52.90
2019-02-14T22:57:01.311Z,52.67
2019-02-14T22:59:30.622Z,59.10
2019-02-14T23:02:00.371Z,57.97
2019-02-14T23:04:29.697Z,54.77
2019-02-14T23:06:59.053Z,54.13
2019-02-14T23:09:28.513Z,51.53
2019-02-14T23:11:57.874Z,54.77
2019-02-14T23:14:27.234Z,51.43
2019-02-14T23:16:56.560Z,54.63
2019-02-14T23:19:26.168Z,53.73
2019-02-14T23:21:55.504Z,64.13
2019-02-14T23:24:24.871Z,53.37
2019-02-14T23:26:54.213Z,58.20
2019-02-14T23:29:23.493Z,53.00
2019-02-14T23:31:52.802Z,62.23
2019-02-14T23:34:22.198Z,71.67
2019-02-14T23:36:51.502Z,57.50
2019-02-14T23:39:20.943Z,65.07
2019-02-14T23:41:50.301Z,72.20
2019-02-14T23:44:19.639Z,70.97
2019-02-14T23:46:49.123Z,69.83
2019-02-14T23:49:18.493Z,65.97
2019-02-14T23:51:47.821Z,74.60
2019-02-14T23:54:17.148Z,61.60
2019-02-14T23:56:46.425Z,69.47
2019-02-14T23:59:15.774Z,67.00
